Nearby METAR Reports

 

LFSI - St. Dizier/Robin, France
Distance from station: SO 26km
Mise à jour: 20/09/2020 10:30
clair
clair
 Wind from varies
Vent: varies 6 km/h
Température: 22°C
Point de rosée: 10°C
Humidité: 47%
Baromètre: 1015 hPa
Résumé: clair
Visibility: greater than 10 km
2020/09/20 08:30 LFSI 200830Z AUTO VRB03KT CAVOK 22/10 Q1015
LFSO - Nancy/Ochey (faf, France
Distance from station: ESE 62km
Mise à jour: 20/09/2020 10:30
clair
clair
 Wind from NNE
Vent: NNE 6 km/h
Température: 20°C
Point de rosée: 10°C
Humidité: 53%
Baromètre: 1016 hPa
Résumé: clair
Visibility: greater than 10 km
2020/09/20 08:30 LFSO 200830Z AUTO 03003KT 350V100 CAVOK 20/10 Q1016
LFOK - Chalons/Vatry Fa, France
Distance from station: O 73km
Mise à jour: 20/09/2020 10:30
clair
clair
 Wind from SSE
Vent: SSE 13 km/h
Température: 22°C
Point de rosée: 13°C
Humidité: 57%
Baromètre: 1016 hPa
Résumé: clair
Visibility: greater than 10 km
2020/09/20 08:30 LFOK 200830Z AUTO 15007KT 120V190 CAVOK 22/13 Q1016 NOSIG
 
LFSN - Nancy/Essey, France
Distance from station: E 77km
Mise à jour: 20/09/2020 10:30
clair
clair
 Wind from NE
Vent: NE 6 km/h
Température: 19°C
Point de rosée: 9°C
Humidité: 52%
Baromètre: 1016 hPa
Résumé: clair
Visibility: greater than 10 km
2020/09/20 08:30 LFSN 200830Z AUTO 05003KT 340V120 CAVOK 19/09 Q1016
LFSG - Epinal/Mirecourt, France
Distance from station: SE 81km
Mise à jour: 20/09/2020 10:30
clair
clair
 Wind from NNE
Vent: NNE 9 km/h
Température: 18°C
Point de rosée: 10°C
Humidité: 60%
Baromètre: 1016 hPa
Résumé: clair
Visibility: greater than 10 km
2020/09/20 08:30 LFSG 200830Z AUTO 02005KT CAVOK 18/10 Q1016
LFJL - Metz-Nancy-Lorra, France
Distance from station: ENE 82km
Mise à jour: 20/09/2020 10:30
clair
clair
 Wind from ENE
Vent: ENE 9 km/h
Température: 20°C
Point de rosée: 8°C
Humidité: 46%
Baromètre: 1016 hPa
Résumé: clair
Visibility: greater than 10 km
2020/09/20 08:30 LFJL 200830Z AUTO 06005KT 030V100 CAVOK 20/08 Q1016 NOSIG
 
LFQA - Reims/Prunay, France
Distance from station: ONO 89km
Mise à jour: 20/09/2020 10:30
clair
clair
 Wind from varies
Vent: varies 4 km/h
Température: 22°C
Point de rosée: 12°C
Humidité: 53%
Baromètre: 1015 hPa
Résumé: clair
Visibility: greater than 10 km
2020/09/20 08:30 LFQA 200830Z AUTO VRB02KT CAVOK 22/12 Q1015
LFQB - Troyes/Barberey, France
Distance from station: OSO 99km
Mise à jour: 20/09/2020 10:30
clair
clair
 Wind from varies
Vent: varies 4 km/h
Température: 22°C
Point de rosée: 18°C
Humidité: 78%
Baromètre: 1015 hPa
Résumé: clair
Visibility: greater than 10 km
2020/09/20 08:30 LFQB 200830Z AUTO VRB02KT CAVOK 22/18 Q1015